createdAt,value
2022-11-15T00:02:12.063Z,3.30
2022-11-15T00:05:04.500Z,3.20
2022-11-15T00:07:58.094Z,3.20
2022-11-15T00:11:01.269Z,3.10
2022-11-15T00:13:56.533Z,3.10
2022-11-15T00:16:48.647Z,3.20
2022-11-15T00:19:40.760Z,3.20
2022-11-15T00:22:34.526Z,3.20
2022-11-15T00:25:29.238Z,3.20
2022-11-15T00:28:21.375Z,3.30
2022-11-15T00:31:15.323Z,3.30
2022-11-15T00:34:07.429Z,3.20
2022-11-15T00:36:59.572Z,3.20
2022-11-15T00:39:51.766Z,3.20
2022-11-15T00:42:43.978Z,3.20
2022-11-15T00:45:36.129Z,3.30
2022-11-15T00:48:28.256Z,3.30
2022-11-15T00:51:20.427Z,3.20
2022-11-15T00:54:12.521Z,3.20
2022-11-15T00:57:05.071Z,3.20
2022-11-15T00:59:57.270Z,3.30
2022-11-15T01:02:49.400Z,3.30
2022-11-15T01:05:41.703Z,3.30
2022-11-15T01:08:34.537Z,3.40
2022-11-15T01:11:26.660Z,3.40
2022-11-15T01:14:24.187Z,3.40
2022-11-15T01:17:17.586Z,3.50
2022-11-15T01:20:10.276Z,3.40
2022-11-15T01:23:02.398Z,3.40
2022-11-15T01:26:00.301Z,3.40
2022-11-15T01:28:53.186Z,3.40
2022-11-15T01:31:45.290Z,3.50
2022-11-15T01:34:37.418Z,3.50
2022-11-15T01:37:29.535Z,3.50
2022-11-15T01:40:21.684Z,3.60
2022-11-15T01:43:25.483Z,3.50
2022-11-15T01:46:23.420Z,3.60
2022-11-15T01:49:22.183Z,3.60
2022-11-15T01:52:20.228Z,3.70
2022-11-15T01:55:27.154Z,3.80
2022-11-15T01:58:19.598Z,3.90
2022-11-15T02:01:12.409Z,3.90
2022-11-15T02:04:11.698Z,4.00
2022-11-15T02:07:06.228Z,3.90
2022-11-15T02:10:09.133Z,3.90
2022-11-15T02:13:02.487Z,3.90
2022-11-15T02:16:15.208Z,4.00
2022-11-15T02:19:45.799Z,4.10
2022-11-15T02:22:52.711Z,4.10
2022-11-15T02:26:27.212Z,4.20
2022-11-15T02:29:38.855Z,4.20
2022-11-15T02:33:07.409Z,4.10
2022-11-15T02:36:33.166Z,4.30
2022-11-15T02:39:41.576Z,4.40
2022-11-15T02:42:56.543Z,4.40
2022-11-15T02:46:01.059Z,4.40
2022-11-15T02:48:53.199Z,4.30
2022-11-15T02:51:48.771Z,4.20
2022-11-15T02:54:40.894Z,4.30
2022-11-15T02:57:35.998Z,4.20
2022-11-15T03:00:33.355Z,4.30
2022-11-15T03:03:28.688Z,4.20
2022-11-15T03:06:27.851Z,4.20
2022-11-15T03:09:36.389Z,4.20
2022-11-15T03:12:37.785Z,4.30
2022-11-15T03:15:38.044Z,4.30
2022-11-15T03:18:35.129Z,4.10
2022-11-15T03:21:29.955Z,4.00
2022-11-15T03:24:26.146Z,4.10
2022-11-15T03:27:23.690Z,4.10
2022-11-15T03:30:16.884Z,4.00
2022-11-15T03:33:09.964Z,3.90
2022-11-15T03:36:02.164Z,3.90
2022-11-15T03:38:59.316Z,3.90
2022-11-15T03:41:58.026Z,3.90
2022-11-15T03:44:58.945Z,3.90
2022-11-15T03:48:20.848Z,3.90
2022-11-15T03:51:13.516Z,4.00
2022-11-15T03:54:05.961Z,3.90
2022-11-15T03:56:58.182Z,4.00
2022-11-15T03:59:50.365Z,4.10
2022-11-15T04:02:42.493Z,4.20
2022-11-15T04:05:34.874Z,4.30
2022-11-15T04:08:27.088Z,4.10
2022-11-15T04:11:19.202Z,4.00
2022-11-15T04:14:11.367Z,4.10
2022-11-15T04:17:03.474Z,4.10
2022-11-15T04:20:14.141Z,4.20
2022-11-15T04:23:32.153Z,4.30
2022-11-15T04:26:25.018Z,4.40
2022-11-15T04:29:35.409Z,4.40
2022-11-15T04:32:27.594Z,4.30
2022-11-15T04:35:19.816Z,4.40
2022-11-15T04:38:12.630Z,4.50
2022-11-15T04:41:04.895Z,4.50
2022-11-15T04:43:57.249Z,4.50
2022-11-15T04:46:49.388Z,4.60
2022-11-15T04:49:41.606Z,4.50
2022-11-15T04:52:33.700Z,4.30
2022-11-15T04:55:25.864Z,4.40
2022-11-15T04:58:17.972Z,4.40
2022-11-15T05:01:15.719Z,4.30
2022-11-15T05:04:21.379Z,4.20
2022-11-15T05:07:13.549Z,4.20
2022-11-15T05:10:06.027Z,4.30
2022-11-15T05:12:58.174Z,4.30
2022-11-15T05:15:50.388Z,4.20
2022-11-15T05:18:42.716Z,4.10
2022-11-15T05:21:35.626Z,4.20
2022-11-15T05:24:27.761Z,4.20
2022-11-15T05:27:19.934Z,4.10
2022-11-15T05:30:12.263Z,4.20
2022-11-15T05:33:04.863Z,4.30
2022-11-15T05:36:10.746Z,4.50
2022-11-15T05:39:04.383Z,4.60
2022-11-15T05:42:02.889Z,4.70
2022-11-15T05:44:55.167Z,4.60
2022-11-15T05:47:48.447Z,4.60
2022-11-15T05:50:44.529Z,4.80
2022-11-15T05:53:38.055Z,5.00
2022-11-15T05:56:31.018Z,5.00
2022-11-15T05:59:23.401Z,5.10
2022-11-15T06:02:15.523Z,5.20
2022-11-15T06:05:07.712Z,5.20
2022-11-15T06:08:00.199Z,5.10
2022-11-15T06:10:52.355Z,5.00
2022-11-15T06:13:44.469Z,4.90
2022-11-15T06:16:36.593Z,4.90
2022-11-15T06:19:28.743Z,4.80
2022-11-15T06:22:20.891Z,4.80
2022-11-15T06:25:13.229Z,4.80
2022-11-15T06:28:05.509Z,4.80
2022-11-15T06:31:02.891Z,4.80
2022-11-15T06:33:55.094Z,4.80
2022-11-15T06:36:47.326Z,4.90
2022-11-15T06:39:39.443Z,4.90
2022-11-15T06:42:31.713Z,4.90
2022-11-15T06:45:23.887Z,4.90
2022-11-15T06:48:16.032Z,5.00
2022-11-15T06:51:09.151Z,5.10
2022-11-15T06:54:01.443Z,5.20
2022-11-15T06:56:53.568Z,5.20
2022-11-15T06:59:45.741Z,5.20
2022-11-15T07:02:38.005Z,5.20
2022-11-15T07:05:30.795Z,5.30
2022-11-15T07:08:24.539Z,5.40
2022-11-15T07:11:16.720Z,5.50
2022-11-15T07:14:08.952Z,5.50
2022-11-15T07:17:01.121Z,5.50
2022-11-15T07:19:53.266Z,5.40
2022-11-15T07:22:48.843Z,5.40
2022-11-15T07:25:41.025Z,5.40
2022-11-15T07:28:33.304Z,5.40
2022-11-15T07:31:26.505Z,5.40
2022-11-15T07:34:18.653Z,5.30
2022-11-15T07:37:11.441Z,5.40
2022-11-15T07:40:03.788Z,5.40
2022-11-15T07:43:07.324Z,5.50
2022-11-15T07:45:59.919Z,5.70
2022-11-15T07:48:52.129Z,5.70
2022-11-15T07:51:45.308Z,5.60
2022-11-15T07:54:37.452Z,5.60
2022-11-15T07:57:30.491Z,5.70
2022-11-15T08:00:22.716Z,5.80
2022-11-15T08:03:16.738Z,5.90
2022-11-15T08:06:08.920Z,5.90
2022-11-15T08:09:01.083Z,6.00
2022-11-15T08:11:53.221Z,6.10
2022-11-15T08:14:45.320Z,6.20
2022-11-15T08:17:37.417Z,6.20
2022-11-15T08:20:31.185Z,6.20
2022-11-15T08:23:23.303Z,6.20
2022-11-15T08:26:15.693Z,6.30
2022-11-15T08:29:09.633Z,6.30
2022-11-15T08:32:01.753Z,6.20
2022-11-15T08:34:54.015Z,6.30
2022-11-15T08:37:46.754Z,6.40
2022-11-15T08:40:39.053Z,6.40
2022-11-15T08:43:31.839Z,6.40
2022-11-15T08:46:24.505Z,6.30
2022-11-15T08:49:16.986Z,6.30
2022-11-15T08:52:09.156Z,6.40
2022-11-15T08:55:01.320Z,6.30
2022-11-15T08:57:53.462Z,6.40
2022-11-15T09:00:45.599Z,6.50
2022-11-15T09:03:37.729Z,6.60
2022-11-15T09:06:29.854Z,6.70
2022-11-15T09:09:22.103Z,6.60
2022-11-15T09:12:14.518Z,6.70
2022-11-15T09:15:07.766Z,6.70
2022-11-15T09:18:00.588Z,6.70
2022-11-15T09:20:55.647Z,6.70
2022-11-15T09:23:47.814Z,6.70
2022-11-15T09:26:40.361Z,6.70
2022-11-15T09:29:32.525Z,6.80
2022-11-15T09:32:24.823Z,6.80
2022-11-15T09:35:17.586Z,6.90
2022-11-15T09:38:09.700Z,7.00
2022-11-15T09:41:13.984Z,7.20
2022-11-15T09:44:32.300Z,7.30
2022-11-15T09:48:08.915Z,7.30
2022-11-15T09:51:01.296Z,7.30
2022-11-15T09:57:48.320Z,7.40
2022-11-15T10:00:47.469Z,7.30
2022-11-15T10:03:43.025Z,7.30
2022-11-15T10:06:42.075Z,7.40
2022-11-15T10:09:48.786Z,7.30
2022-11-15T10:12:46.993Z,7.40
2022-11-15T10:15:39.220Z,7.40
2022-11-15T10:19:02.061Z,7.40
2022-11-15T10:22:29.676Z,7.30
2022-11-15T10:25:26.708Z,7.40
2022-11-15T10:28:22.676Z,7.40
2022-11-15T10:31:29.392Z,7.40
2022-11-15T10:34:27.652Z,7.50
2022-11-15T10:37:32.745Z,7.40
2022-11-15T10:40:25.523Z,7.50
2022-11-15T10:43:19.871Z,7.50
2022-11-15T10:46:45.672Z,7.50
2022-11-15T10:49:36.872Z,7.50
2022-11-15T10:52:31.237Z,7.40
2022-11-15T10:55:28.799Z,7.40
2022-11-15T10:58:38.234Z,7.40
2022-11-15T11:01:33.469Z,7.40
2022-11-15T11:04:25.664Z,7.40
2022-11-15T11:07:38.195Z,7.40
2022-11-15T11:13:43.584Z,7.40
2022-11-15T11:16:43.671Z,7.40
2022-11-15T11:19:53.550Z,7.40
2022-11-15T11:23:12.874Z,7.20
2022-11-15T11:26:36.664Z,7.30
2022-11-15T11:30:07.917Z,7.30
2022-11-15T11:33:19.938Z,7.30
2022-11-15T11:36:12.036Z,7.30
2022-11-15T11:39:29.862Z,7.30
2022-11-15T11:42:33.926Z,7.40
2022-11-15T11:45:35.422Z,7.50
2022-11-15T11:48:27.519Z,7.40
2022-11-15T11:51:57.820Z,7.40
2022-11-15T11:55:19.165Z,7.40
2022-11-15T11:58:42.255Z,7.40
2022-11-15T12:01:52.637Z,7.40
2022-11-15T12:04:49.592Z,7.40
2022-11-15T12:07:43.181Z,7.30
2022-11-15T12:10:36.422Z,7.30
2022-11-15T12:13:34.430Z,7.30
2022-11-15T12:16:34.296Z,7.30
2022-11-15T12:19:27.206Z,7.30
2022-11-15T12:22:42.585Z,7.30
2022-11-15T12:25:49.955Z,7.30
2022-11-15T12:29:07.949Z,7.30
2022-11-15T12:32:01.803Z,7.30
2022-11-15T12:34:55.505Z,7.30
2022-11-15T12:37:50.899Z,7.30
2022-11-15T12:41:15.304Z,7.30
2022-11-15T12:44:33.835Z,7.30
2022-11-15T12:47:28.321Z,7.30
2022-11-15T12:51:05.710Z,7.20
2022-11-15T12:53:57.830Z,7.20
2022-11-15T12:57:07.370Z,7.20
2022-11-15T13:00:28.335Z,7.20
2022-11-15T13:03:24.564Z,7.20
2022-11-15T13:06:39.624Z,7.20
2022-11-15T13:09:37.469Z,7.20
2022-11-15T13:12:30.214Z,7.20
2022-11-15T13:15:25.545Z,7.20
2022-11-15T13:18:37.156Z,7.20
2022-11-15T13:21:51.774Z,7.10
2022-11-15T13:24:44.086Z,7.10
2022-11-15T13:27:36.252Z,7.10
2022-11-15T13:30:31.582Z,7.10
2022-11-15T13:33:35.711Z,7.10
2022-11-15T13:36:34.071Z,7.10
2022-11-15T13:39:32.304Z,7.10
2022-11-15T13:42:29.722Z,7.10
2022-11-15T13:45:22.082Z,7.00
2022-11-15T13:48:14.234Z,7.10
2022-11-15T13:51:25.776Z,7.10
2022-11-15T13:54:37.438Z,7.10
2022-11-15T13:57:40.527Z,7.10
2022-11-15T14:00:43.147Z,7.10
2022-11-15T14:03:51.843Z,7.10
2022-11-15T14:06:50.898Z,7.10
2022-11-15T14:09:46.205Z,7.20
2022-11-15T14:12:39.223Z,7.10
2022-11-15T14:15:37.135Z,7.10
2022-11-15T14:18:41.661Z,7.10
2022-11-15T14:21:34.584Z,7.10
2022-11-15T14:24:32.579Z,7.10
2022-11-15T14:27:30.212Z,7.00
2022-11-15T14:30:23.389Z,7.10
2022-11-15T14:33:22.656Z,7.00
2022-11-15T14:36:20.249Z,7.10
2022-11-15T14:39:12.390Z,7.10
2022-11-15T14:42:06.646Z,7.10
2022-11-15T14:44:59.242Z,7.00
2022-11-15T14:47:51.425Z,7.00
2022-11-15T14:50:44.243Z,7.00
2022-11-15T14:53:36.391Z,7.00
2022-11-15T14:56:28.542Z,7.00
2022-11-15T14:59:20.627Z,7.00
2022-11-15T15:02:21.950Z,7.00
2022-11-15T15:05:18.647Z,6.90
2022-11-15T15:08:11.606Z,6.90
2022-11-15T15:11:11.521Z,6.80
2022-11-15T15:14:04.107Z,6.90
2022-11-15T15:16:56.244Z,6.80
2022-11-15T15:19:48.374Z,6.80
2022-11-15T15:22:41.037Z,6.90
2022-11-15T15:25:36.467Z,6.90
2022-11-15T15:28:33.096Z,6.80
2022-11-15T15:31:26.587Z,6.80
2022-11-15T15:34:18.716Z,6.80
2022-11-15T15:37:26.588Z,6.80
2022-11-15T15:40:21.403Z,6.80
2022-11-15T15:43:13.602Z,6.80
2022-11-15T15:46:09.161Z,6.80
2022-11-15T15:49:01.647Z,6.90
2022-11-15T15:51:53.765Z,6.90
2022-11-15T15:54:45.914Z,6.90
2022-11-15T15:57:38.137Z,7.00
2022-11-15T16:00:30.565Z,7.00
2022-11-15T16:03:23.370Z,6.90
2022-11-15T16:06:40.320Z,7.00
2022-11-15T16:09:51.277Z,7.00
2022-11-15T16:12:43.630Z,7.00
2022-11-15T16:15:36.504Z,7.00
2022-11-15T16:18:28.633Z,7.00
2022-11-15T16:21:20.868Z,7.00
2022-11-15T16:24:13.013Z,7.10
2022-11-15T16:27:05.331Z,7.00
2022-11-15T16:29:57.427Z,7.10
2022-11-15T16:32:49.669Z,7.10
2022-11-15T16:35:41.866Z,7.10
2022-11-15T16:38:34.471Z,7.10
2022-11-15T16:41:27.223Z,7.20
2022-11-15T16:44:19.435Z,7.10
2022-11-15T16:47:21.337Z,7.20
2022-11-15T16:50:29.115Z,7.10
2022-11-15T16:53:21.194Z,7.10
2022-11-15T16:56:29.406Z,7.20
2022-11-15T16:59:21.619Z,7.20
2022-11-15T17:02:13.936Z,7.20
2022-11-15T17:05:09.963Z,7.20
2022-11-15T17:08:03.245Z,7.20
2022-11-15T17:10:55.385Z,7.10
2022-11-15T17:13:49.465Z,7.00
2022-11-15T17:16:44.562Z,7.00
2022-11-15T17:19:36.711Z,7.00
2022-11-15T17:22:28.845Z,7.00
2022-11-15T17:25:21.100Z,7.00
2022-11-15T17:28:13.260Z,7.10
2022-11-15T17:31:13.773Z,7.20
2022-11-15T17:34:06.941Z,7.20
2022-11-15T17:36:59.130Z,7.20
2022-11-15T17:39:51.277Z,7.20
2022-11-15T17:42:43.494Z,7.10
2022-11-15T17:45:40.028Z,7.10
2022-11-15T17:48:32.632Z,7.10
2022-11-15T17:51:25.807Z,7.10
2022-11-15T17:54:18.051Z,7.10
2022-11-15T17:57:10.690Z,7.10
2022-11-15T18:00:03.330Z,7.10
2022-11-15T18:02:57.209Z,7.20
2022-11-15T18:05:49.321Z,7.20
2022-11-15T18:08:43.506Z,7.20
2022-11-15T18:11:41.100Z,7.10
2022-11-15T18:14:33.232Z,7.00
2022-11-15T18:17:25.616Z,7.10
2022-11-15T18:20:17.901Z,7.20
2022-11-15T18:23:09.990Z,7.10
2022-11-15T18:26:03.620Z,7.20
2022-11-15T18:29:01.842Z,7.10
2022-11-15T18:31:57.644Z,7.10
2022-11-15T18:34:49.843Z,7.20
2022-11-15T18:37:42.102Z,7.30
2022-11-15T18:40:35.331Z,7.30
2022-11-15T18:43:27.587Z,7.30
2022-11-15T18:46:21.721Z,7.20
2022-11-15T18:49:16.534Z,7.30
2022-11-15T18:52:08.681Z,7.30
2022-11-15T18:55:00.820Z,7.40
2022-11-15T18:57:53.013Z,7.40
2022-11-15T19:00:45.190Z,7.40
2022-11-15T19:03:40.037Z,7.30
2022-11-15T19:06:32.298Z,7.30
2022-11-15T19:09:31.646Z,7.20
2022-11-15T19:12:23.759Z,7.10
2022-11-15T19:15:15.961Z,7.10
2022-11-15T19:18:08.068Z,7.20
2022-11-15T19:21:05.060Z,6.90
2022-11-15T19:23:58.649Z,6.80
2022-11-15T19:26:50.888Z,6.80
2022-11-15T19:29:43.027Z,6.70
2022-11-15T19:32:35.175Z,6.70
2022-11-15T19:35:27.311Z,6.70
2022-11-15T19:38:19.412Z,6.60
2022-11-15T19:41:14.060Z,6.60
2022-11-15T19:44:07.052Z,6.60
2022-11-15T19:46:59.184Z,6.60
2022-11-15T19:49:51.273Z,6.60
2022-11-15T19:52:43.425Z,6.60
2022-11-15T19:55:35.585Z,6.60
2022-11-15T19:58:29.181Z,6.70
2022-11-15T20:01:26.505Z,6.70
2022-11-15T20:04:19.044Z,6.70
2022-11-15T20:07:11.553Z,6.60
2022-11-15T20:10:03.955Z,6.70
2022-11-15T20:12:56.062Z,6.70
2022-11-15T20:15:48.284Z,6.70
2022-11-15T20:18:40.600Z,6.70
2022-11-15T20:21:32.772Z,6.70
2022-11-15T20:24:25.074Z,6.60
2022-11-15T20:27:17.224Z,6.70
2022-11-15T20:30:10.454Z,6.70
2022-11-15T20:33:02.805Z,6.70
2022-11-15T20:35:55.068Z,6.70
2022-11-15T20:38:47.193Z,6.70
2022-11-15T20:41:39.374Z,6.70
2022-11-15T20:44:31.539Z,6.70
2022-11-15T20:47:27.663Z,6.70
2022-11-15T20:50:41.443Z,6.70
2022-11-15T20:53:35.025Z,6.70
2022-11-15T20:56:27.173Z,6.70
2022-11-15T20:59:19.278Z,6.70
2022-11-15T21:02:14.988Z,6.70
2022-11-15T21:05:08.030Z,6.80
2022-11-15T21:08:00.171Z,6.80
2022-11-15T21:11:12.874Z,6.80
2022-11-15T21:14:08.953Z,6.80
2022-11-15T21:17:01.753Z,6.80
2022-11-15T21:19:53.945Z,6.80
2022-11-15T21:22:47.062Z,6.80
2022-11-15T21:25:39.279Z,6.80
2022-11-15T21:28:31.900Z,6.80
2022-11-15T21:31:24.555Z,6.80
2022-11-15T21:34:17.510Z,6.80
2022-11-15T21:37:11.016Z,6.80
2022-11-15T21:40:04.194Z,6.80
2022-11-15T21:42:56.313Z,6.80
2022-11-15T21:46:02.023Z,6.80
2022-11-15T21:48:54.160Z,6.70
2022-11-15T21:51:46.357Z,6.80
2022-11-15T21:54:39.160Z,6.90
2022-11-15T21:57:31.290Z,7.00
2022-11-15T22:00:42.409Z,7.10
2022-11-15T22:03:34.795Z,7.00
2022-11-15T22:06:26.917Z,7.10
2022-11-15T22:09:19.050Z,7.10
2022-11-15T22:12:11.269Z,7.20
2022-11-15T22:15:03.620Z,7.10
2022-11-15T22:17:58.559Z,7.10
2022-11-15T22:20:56.448Z,7.10
2022-11-15T22:23:48.828Z,7.10
2022-11-15T22:26:41.029Z,7.10
2022-11-15T22:29:33.261Z,7.10
2022-11-15T22:32:25.408Z,7.10
2022-11-15T22:35:17.670Z,7.20
2022-11-15T22:38:10.735Z,7.40
2022-11-15T22:41:02.977Z,7.20
2022-11-15T22:43:55.466Z,7.10
2022-11-15T22:46:47.643Z,7.20
2022-11-15T22:49:39.812Z,7.30
2022-11-15T22:52:31.975Z,7.40
2022-11-15T22:55:24.304Z,7.40
2022-11-15T22:58:16.517Z,7.50
2022-11-15T23:01:20.983Z,7.60
2022-11-15T23:04:13.194Z,7.60
2022-11-15T23:07:05.640Z,7.60
2022-11-15T23:10:16.545Z,7.70
2022-11-15T23:13:18.750Z,7.70
2022-11-15T23:16:23.544Z,7.50
2022-11-15T23:19:15.909Z,7.60
2022-11-15T23:22:26.754Z,7.60
2022-11-15T23:25:18.834Z,7.70
2022-11-15T23:28:11.119Z,7.60
2022-11-15T23:31:26.534Z,7.70
2022-11-15T23:34:22.356Z,7.70
2022-11-15T23:37:15.838Z,7.80
2022-11-15T23:40:09.130Z,7.60
2022-11-15T23:43:01.311Z,7.60
2022-11-15T23:45:53.650Z,7.50
2022-11-15T23:48:45.971Z,7.40
2022-11-15T23:51:38.323Z,7.30
2022-11-15T23:54:30.840Z,7.30
2022-11-15T23:57:23.258Z,7.30
